createdAt,value
2019-06-10T00:02:07.292Z,16.90
2019-06-10T00:04:37.408Z,16.90
2019-06-10T00:07:07.484Z,16.90
2019-06-10T00:09:37.508Z,16.90
2019-06-10T00:12:09.291Z,16.90
2019-06-10T00:14:41.673Z,16.90
2019-06-10T00:17:11.155Z,16.90
2019-06-10T00:19:41.093Z,16.80
2019-06-10T00:22:11.852Z,16.70
2019-06-10T00:24:41.815Z,16.80
2019-06-10T00:27:12.016Z,16.80
2019-06-10T00:29:41.926Z,16.80
2019-06-10T00:32:13.163Z,16.80
2019-06-10T00:34:43.673Z,16.80
2019-06-10T00:37:15.045Z,16.80
2019-06-10T00:39:45.217Z,16.80
2019-06-10T00:42:15.540Z,16.70
2019-06-10T00:44:45.417Z,16.70
2019-06-10T00:47:15.613Z,16.70
2019-06-10T00:49:45.685Z,16.70
2019-06-10T00:52:15.604Z,16.70
2019-06-10T00:54:47.855Z,16.70
2019-06-10T00:57:17.664Z,16.50
2019-06-10T00:59:47.623Z,16.50
2019-06-10T01:02:17.502Z,16.50
2019-06-10T01:04:51.519Z,16.50
2019-06-10T01:07:21.868Z,16.40
2019-06-10T01:09:51.977Z,16.30
2019-06-10T01:12:21.785Z,16.20
2019-06-10T01:14:51.770Z,16.20
2019-06-10T01:17:21.689Z,16.20
2019-06-10T01:19:52.024Z,16.20
2019-06-10T01:22:21.956Z,16.30
2019-06-10T01:24:52.005Z,16.30
2019-06-10T01:27:21.820Z,16.30
2019-06-10T01:29:51.718Z,16.30
2019-06-10T01:32:21.782Z,16.30
2019-06-10T01:34:51.670Z,16.30
2019-06-10T01:37:22.002Z,16.20
2019-06-10T01:39:51.893Z,16.20
2019-06-10T01:42:21.778Z,16.20
2019-06-10T01:44:51.577Z,16.20
2019-06-10T01:47:21.661Z,16.20
2019-06-10T01:49:51.883Z,16.20
2019-06-10T01:52:21.790Z,16.00
2019-06-10T01:54:51.762Z,16.10
2019-06-10T01:57:22.058Z,16.10
2019-06-10T01:59:52.119Z,16.00
2019-06-10T02:02:24.137Z,16.10
2019-06-10T02:04:54.192Z,16.10
2019-06-10T02:07:24.205Z,16.00
2019-06-10T02:12:24.037Z,16.00
2019-06-10T02:14:54.637Z,16.00
2019-06-10T02:17:24.459Z,16.10
2019-06-10T02:19:54.336Z,16.00
2019-06-10T02:22:24.640Z,15.90
2019-06-10T02:24:54.603Z,15.90
2019-06-10T02:27:24.777Z,15.90
2019-06-10T02:29:54.586Z,15.90
2019-06-10T02:32:31.764Z,15.80
2019-06-10T02:35:08.181Z,15.80
2019-06-10T02:37:32.303Z,15.70
2019-06-10T02:39:59.120Z,15.80
2019-06-10T02:42:36.700Z,15.80
2019-06-10T02:45:07.789Z,15.80
2019-06-10T02:47:38.459Z,15.80
2019-06-10T02:50:14.996Z,15.90
2019-06-10T02:52:44.301Z,15.90
2019-06-10T02:55:16.288Z,15.90
2019-06-10T02:57:46.154Z,15.90
2019-06-10T03:00:23.413Z,15.90
2019-06-10T03:02:48.201Z,16.00
2019-06-10T03:05:21.255Z,16.00
2019-06-10T03:07:49.537Z,16.00
2019-06-10T03:10:22.686Z,16.00
2019-06-10T03:12:52.806Z,15.90
2019-06-10T03:15:25.108Z,15.90
2019-06-10T03:17:54.244Z,16.00
2019-06-10T03:20:25.872Z,16.00
2019-06-10T03:22:55.545Z,16.00
2019-06-10T03:25:26.441Z,16.00
2019-06-10T03:27:56.999Z,16.00
2019-06-10T03:30:41.155Z,15.90
2019-06-10T03:32:58.483Z,15.90
2019-06-10T03:35:28.545Z,15.90
2019-06-10T03:37:58.708Z,15.80
2019-06-10T03:40:28.509Z,15.80
2019-06-10T03:42:58.371Z,15.80
2019-06-10T03:45:28.514Z,15.80
2019-06-10T03:47:58.445Z,15.80
2019-06-10T03:50:28.758Z,15.70
2019-06-10T03:53:01.100Z,15.70
2019-06-10T03:55:30.097Z,15.70
2019-06-10T03:58:02.062Z,15.70
2019-06-10T04:00:32.763Z,15.70
2019-06-10T04:03:02.914Z,15.70
2019-06-10T04:05:33.234Z,15.70
2019-06-10T04:08:03.161Z,15.70
2019-06-10T04:10:33.057Z,15.70
2019-06-10T04:13:03.039Z,15.60
2019-06-10T04:15:32.920Z,15.60
2019-06-10T04:18:03.927Z,15.50
2019-06-10T04:20:34.206Z,15.50
2019-06-10T04:23:04.003Z,15.60
2019-06-10T04:25:33.883Z,15.60
2019-06-10T04:28:03.861Z,15.70
2019-06-10T04:30:33.737Z,15.70
2019-06-10T04:33:03.728Z,15.70
2019-06-10T04:35:33.743Z,15.70
2019-06-10T04:38:03.967Z,15.70
2019-06-10T04:40:33.772Z,15.70
2019-06-10T04:43:03.642Z,15.80
2019-06-10T04:45:33.513Z,16.00
2019-06-10T04:48:03.321Z,16.00
2019-06-10T04:50:42.280Z,16.00
2019-06-10T04:53:04.961Z,16.00
2019-06-10T04:55:35.106Z,16.10
2019-06-10T04:58:04.925Z,16.20
2019-06-10T05:00:34.714Z,16.20
2019-06-10T05:03:04.665Z,16.30
2019-06-10T05:05:34.476Z,16.40
2019-06-10T05:10:33.605Z,16.50
2019-06-10T05:13:03.404Z,16.60
2019-06-10T05:15:35.002Z,16.80
2019-06-10T05:18:04.922Z,16.90
2019-06-10T05:20:50.816Z,17.00
2019-06-10T05:25:35.653Z,17.20
2019-06-10T05:28:05.528Z,17.40
2019-06-10T05:30:35.547Z,17.50
2019-06-10T05:33:05.512Z,17.70
2019-06-10T05:35:35.329Z,17.90
2019-06-10T05:38:05.277Z,17.90
2019-06-10T05:43:04.413Z,18.20
2019-06-10T05:45:35.112Z,18.30
2019-06-10T05:48:05.328Z,18.40
2019-06-10T05:53:04.979Z,18.60
2019-06-10T05:55:35.320Z,18.70
2019-06-10T05:58:05.357Z,18.80
2019-06-10T06:00:35.587Z,18.70
2019-06-10T06:03:05.882Z,18.70
2019-06-10T06:05:37.571Z,18.80
2019-06-10T06:08:08.881Z,19.00
2019-06-10T06:10:39.111Z,19.10
2019-06-10T06:13:08.915Z,19.30
2019-06-10T06:15:38.721Z,19.40
2019-06-10T06:18:10.713Z,19.40
2019-06-10T06:20:40.573Z,19.70
2019-06-10T06:23:12.261Z,19.90
2019-06-10T06:25:46.381Z,20.00
2019-06-10T06:28:16.215Z,20.20
2019-06-10T06:30:45.389Z,20.10
2019-06-10T06:35:46.470Z,20.20
2019-06-10T06:38:16.117Z,20.20
2019-06-10T06:43:15.304Z,20.50
2019-06-10T06:45:45.178Z,20.70
2019-06-10T06:48:15.004Z,20.80
2019-06-10T06:51:00.555Z,20.90
2019-06-10T06:55:47.348Z,20.90
2019-06-10T06:58:17.233Z,21.10
2019-06-10T07:01:00.430Z,21.10
2019-06-10T07:03:18.632Z,21.20
2019-06-10T07:05:48.516Z,21.20
2019-06-10T07:10:47.857Z,21.10
2019-06-10T07:13:17.739Z,22.00
2019-06-10T07:15:47.971Z,22.80
2019-06-10T07:20:47.203Z,22.60
2019-06-10T07:23:17.353Z,22.30
2019-06-10T07:25:47.822Z,22.00
2019-06-10T07:28:17.793Z,21.90
2019-06-10T07:30:53.840Z,21.90
2019-06-10T07:35:48.781Z,21.80
2019-06-10T07:38:18.705Z,22.00
2019-06-10T07:40:48.494Z,22.10
2019-06-10T07:43:18.323Z,22.50
2019-06-10T07:45:48.288Z,22.50
2019-06-10T07:48:18.353Z,22.20
2019-06-10T07:50:48.160Z,22.30
2019-06-10T07:53:17.979Z,22.60
2019-06-10T07:58:19.216Z,22.70
2019-06-10T08:03:18.516Z,23.20
2019-06-10T08:05:48.587Z,23.90
2019-06-10T08:08:18.393Z,24.80
2019-06-10T08:10:48.314Z,25.70
2019-06-10T08:13:18.177Z,26.10
2019-06-10T08:15:48.426Z,25.80
2019-06-10T08:18:18.633Z,25.40
2019-06-10T08:20:48.456Z,25.30
2019-06-10T08:23:20.241Z,25.10
2019-06-10T08:25:56.663Z,24.90
2019-06-10T08:28:22.986Z,26.20
2019-06-10T08:30:53.505Z,27.70
2019-06-10T08:33:23.525Z,28.30
2019-06-10T08:35:59.879Z,28.80
2019-06-10T08:43:23.509Z,29.60
2019-06-10T08:45:53.919Z,28.50
2019-06-10T08:48:24.137Z,27.80
2019-06-10T08:53:23.454Z,26.70
2019-06-10T08:55:53.782Z,26.50
2019-06-10T08:58:23.964Z,26.30
2019-06-10T09:00:54.029Z,26.00
2019-06-10T09:03:23.974Z,25.60
2019-06-10T09:05:56.234Z,25.50
2019-06-10T09:08:26.125Z,25.30
2019-06-10T09:10:56.172Z,25.50
2019-06-10T09:13:25.977Z,25.20
2019-06-10T09:18:27.092Z,25.50
2019-06-10T09:25:57.520Z,25.40
2019-06-10T09:30:59.264Z,25.50
2019-06-10T09:33:28.610Z,25.50
2019-06-10T09:35:58.426Z,25.70
2019-06-10T09:38:28.233Z,25.70
2019-06-10T09:41:01.650Z,25.80
2019-06-10T09:43:29.843Z,26.00
2019-06-10T09:45:59.905Z,26.00
2019-06-10T09:48:29.724Z,25.70
2019-06-10T09:51:01.982Z,25.40
2019-06-10T09:53:41.430Z,25.50
2019-06-10T09:56:04.229Z,25.30
2019-06-10T09:58:34.225Z,25.40
2019-06-10T10:01:06.870Z,25.20
2019-06-10T10:03:37.605Z,25.20
2019-06-10T10:06:15.406Z,25.50
2019-06-10T10:11:08.937Z,25.90
2019-06-10T10:13:38.734Z,25.50
2019-06-10T10:16:08.621Z,25.50
2019-06-10T10:18:38.482Z,25.60
2019-06-10T10:21:08.291Z,25.60
2019-06-10T10:23:52.427Z,25.60
2019-06-10T10:26:12.783Z,25.90
2019-06-10T10:28:42.819Z,26.10
2019-06-10T10:31:13.268Z,26.30
2019-06-10T10:33:44.300Z,26.70
2019-06-10T10:36:14.298Z,26.50
2019-06-10T10:38:44.769Z,26.60
2019-06-10T10:41:14.754Z,26.50
2019-06-10T10:43:46.807Z,26.20
2019-06-10T10:46:16.204Z,26.10
2019-06-10T10:48:47.066Z,25.90
2019-06-10T10:51:17.629Z,26.00
2019-06-10T10:53:56.211Z,25.70
2019-06-10T10:56:19.209Z,25.90
2019-06-10T11:01:23.179Z,26.20
2019-06-10T11:08:55.815Z,26.40
2019-06-10T11:11:26.846Z,26.50
2019-06-10T11:13:59.177Z,26.50
2019-06-10T11:16:29.073Z,26.60
2019-06-10T11:19:02.555Z,26.70
2019-06-10T11:21:33.052Z,26.90
2019-06-10T11:24:04.761Z,24.90
2019-06-10T11:26:34.890Z,26.80
2019-06-10T11:29:04.967Z,26.80
2019-06-10T11:31:38.658Z,26.70
2019-06-10T11:34:08.629Z,26.80
2019-06-10T11:36:38.438Z,26.90
2019-06-10T11:39:08.646Z,27.10
2019-06-10T11:41:38.698Z,27.10
2019-06-10T11:46:37.851Z,27.00
2019-06-10T11:49:07.668Z,27.20
2019-06-10T11:51:37.464Z,27.20
2019-06-10T11:54:07.275Z,27.00
2019-06-10T11:56:37.143Z,26.80
2019-06-10T12:01:37.999Z,26.60
2019-06-10T12:04:08.174Z,26.60
2019-06-10T12:09:08.909Z,26.20
2019-06-10T12:11:38.718Z,26.20
2019-06-10T12:14:09.071Z,26.30
2019-06-10T12:19:12.653Z,26.30
2019-06-10T12:21:43.437Z,26.50
2019-06-10T12:24:13.582Z,26.50
2019-06-10T12:26:43.578Z,26.60
2019-06-10T12:29:13.597Z,26.60
2019-06-10T12:31:43.513Z,26.60
2019-06-10T12:34:15.273Z,26.60
2019-06-10T12:36:45.202Z,26.80
2019-06-10T12:39:17.220Z,26.80
2019-06-10T12:41:46.782Z,26.60
2019-06-10T12:44:16.673Z,26.70
2019-06-10T12:46:46.548Z,26.60
2019-06-10T12:49:18.429Z,26.70
2019-06-10T12:51:48.071Z,26.40
2019-06-10T12:54:17.869Z,26.40
2019-06-10T12:56:47.677Z,26.30
2019-06-10T12:59:17.589Z,26.50
2019-06-10T13:01:47.522Z,26.60
2019-06-10T13:04:17.425Z,26.50
2019-06-10T13:06:48.705Z,26.50
2019-06-10T13:09:19.265Z,26.50
2019-06-10T13:16:48.346Z,26.20
2019-06-10T13:19:18.235Z,26.40
2019-06-10T13:21:48.102Z,26.40
2019-06-10T13:24:18.028Z,26.50
2019-06-10T13:26:47.976Z,26.60
2019-06-10T13:29:17.879Z,26.50
2019-06-10T13:31:47.903Z,26.10
2019-06-10T13:34:17.749Z,26.10
2019-06-10T13:36:52.855Z,26.20
2019-06-10T13:39:22.384Z,26.20
2019-06-10T13:41:53.208Z,26.10
2019-06-10T13:44:23.475Z,26.10
2019-06-10T13:46:53.389Z,26.30
2019-06-10T13:49:25.523Z,26.40
2019-06-10T13:51:55.137Z,26.50
2019-06-10T13:54:24.949Z,26.60
2019-06-10T13:56:54.776Z,26.50
2019-06-10T13:59:25.006Z,26.40
2019-06-10T14:01:55.105Z,26.40
2019-06-10T14:04:25.936Z,26.20
2019-06-10T14:06:57.280Z,25.90
2019-06-10T14:09:27.166Z,25.90
2019-06-10T14:11:56.994Z,26.10
2019-06-10T14:14:26.820Z,26.00
2019-06-10T14:16:56.638Z,25.90
2019-06-10T14:19:26.726Z,25.90
2019-06-10T14:21:56.682Z,26.00
2019-06-10T14:24:26.564Z,26.00
2019-06-10T14:26:56.448Z,25.90
2019-06-10T14:29:26.260Z,25.70
2019-06-10T14:31:56.227Z,25.70
2019-06-10T14:34:28.181Z,25.80
2019-06-10T14:36:58.111Z,25.60
2019-06-10T14:39:28.005Z,25.70
2019-06-10T14:41:59.396Z,25.70
2019-06-10T14:44:29.334Z,25.70
2019-06-10T14:46:59.210Z,25.60
2019-06-10T14:49:29.093Z,25.50
2019-06-10T14:51:58.906Z,25.40
2019-06-10T14:56:58.105Z,25.30
2019-06-10T14:59:27.935Z,25.20
2019-06-10T15:01:57.825Z,25.00
2019-06-10T15:04:27.701Z,25.00
2019-06-10T15:06:57.524Z,25.00
2019-06-10T15:09:27.510Z,25.10
2019-06-10T15:11:57.517Z,25.10
2019-06-10T15:16:56.904Z,25.30
2019-06-10T15:19:29.096Z,25.40
2019-06-10T15:21:58.312Z,25.30
2019-06-10T15:32:10.657Z,25.30
2019-06-10T15:34:29.502Z,25.20
2019-06-10T15:36:59.322Z,25.20
2019-06-10T15:39:29.261Z,25.20
2019-06-10T15:41:59.082Z,25.30
2019-06-10T15:44:47.884Z,25.30
2019-06-10T15:47:02.913Z,25.60
2019-06-10T15:49:33.751Z,25.70
2019-06-10T15:52:06.716Z,25.70
2019-06-10T15:54:36.534Z,25.50
2019-06-10T15:57:19.352Z,25.50
2019-06-10T15:59:37.838Z,25.50
2019-06-10T16:02:07.931Z,25.50
2019-06-10T16:07:07.465Z,25.20
2019-06-10T16:09:37.358Z,25.10
2019-06-10T16:12:07.237Z,25.10
2019-06-10T16:17:06.510Z,25.10
2019-06-10T16:19:36.414Z,25.00
2019-06-10T16:22:06.341Z,24.70
2019-06-10T16:24:36.201Z,24.50
2019-06-10T16:27:06.089Z,24.40
2019-06-10T16:29:35.903Z,24.20
2019-06-10T16:32:05.861Z,24.10
2019-06-10T16:34:35.717Z,23.90
2019-06-10T16:37:05.597Z,23.90
2019-06-10T16:42:04.912Z,23.60
2019-06-10T16:44:34.841Z,23.50
2019-06-10T16:47:04.677Z,23.50
2019-06-10T16:52:04.521Z,23.30
2019-06-10T16:54:34.357Z,23.30
2019-06-10T16:57:04.404Z,23.30
2019-06-10T16:59:34.353Z,23.30
2019-06-10T17:02:04.245Z,23.20
2019-06-10T17:04:34.136Z,23.20
2019-06-10T17:07:04.013Z,23.20
2019-06-10T17:09:33.969Z,23.40
2019-06-10T17:12:04.689Z,23.40
2019-06-10T17:14:34.577Z,23.40
2019-06-10T17:17:04.520Z,23.50
2019-06-10T17:19:34.384Z,23.40
2019-06-10T17:22:04.371Z,23.40
2019-06-10T17:24:34.245Z,23.30
2019-06-10T17:27:04.117Z,23.30
2019-06-10T17:29:34.005Z,23.20
2019-06-10T17:32:03.973Z,23.20
2019-06-10T17:34:34.149Z,23.20
2019-06-10T17:37:04.304Z,23.20
2019-06-10T17:39:34.807Z,23.20
2019-06-10T17:42:04.804Z,23.10
2019-06-10T17:44:34.756Z,27.80
2019-06-10T17:47:04.632Z,23.00
2019-06-10T17:49:34.979Z,23.00
2019-06-10T17:52:05.089Z,23.00
2019-06-10T17:54:34.885Z,22.80
2019-06-10T17:57:04.848Z,22.80
2019-06-10T17:59:35.487Z,22.70
2019-06-10T18:02:05.487Z,22.70
2019-06-10T18:04:35.266Z,22.70
2019-06-10T18:07:05.134Z,22.60
2019-06-10T18:09:36.994Z,22.60
2019-06-10T18:12:06.814Z,22.50
2019-06-10T18:14:36.786Z,22.40
2019-06-10T18:17:06.662Z,22.40
2019-06-10T18:19:37.509Z,22.30
2019-06-10T18:22:07.497Z,22.20
2019-06-10T18:24:37.339Z,22.10
2019-06-10T18:27:07.228Z,22.00
2019-06-10T18:29:37.376Z,21.90
2019-06-10T18:32:07.392Z,21.80
2019-06-10T18:34:38.083Z,21.70
2019-06-10T18:37:08.205Z,21.70
2019-06-10T18:39:38.085Z,21.60
2019-06-10T18:42:07.906Z,21.50
2019-06-10T18:44:37.795Z,21.50
2019-06-10T18:47:07.681Z,21.50
2019-06-10T18:49:37.604Z,21.40
2019-06-10T18:52:07.548Z,21.40
2019-06-10T18:54:37.448Z,21.40
2019-06-10T18:57:07.333Z,21.30
2019-06-10T18:59:38.361Z,21.20
2019-06-10T19:02:09.197Z,21.10
2019-06-10T19:04:40.110Z,21.10
2019-06-10T19:07:10.168Z,21.10
2019-06-10T19:09:47.346Z,21.10
2019-06-10T19:12:13.443Z,21.10
2019-06-10T19:14:43.437Z,21.10
2019-06-10T19:17:13.401Z,21.00
2019-06-10T19:19:43.352Z,21.10
2019-06-10T19:24:44.753Z,21.00
2019-06-10T19:27:14.952Z,20.80
2019-06-10T19:29:50.728Z,20.60
2019-06-10T19:32:16.396Z,20.60
2019-06-10T19:34:48.522Z,20.40
2019-06-10T19:37:19.108Z,20.30
2019-06-10T19:39:53.752Z,20.20
2019-06-10T19:42:22.607Z,20.20
2019-06-10T19:44:53.493Z,20.10
2019-06-10T19:47:25.321Z,20.00
2019-06-10T19:49:55.396Z,19.60
2019-06-10T19:52:25.556Z,19.40
2019-06-10T19:54:55.864Z,19.20
2019-06-10T19:57:26.762Z,19.10
2019-06-10T20:02:27.608Z,18.90
2019-06-10T20:04:57.410Z,18.70
2019-06-10T20:07:27.296Z,18.60
2019-06-10T20:09:57.168Z,18.40
2019-06-10T20:12:27.045Z,18.40
2019-06-10T20:14:57.025Z,18.20
2019-06-10T20:17:26.840Z,18.00
2019-06-10T20:19:56.652Z,17.90
2019-06-10T20:22:26.496Z,17.90
2019-06-10T20:24:56.419Z,17.70
2019-06-10T20:27:26.293Z,17.70
2019-06-10T20:30:07.655Z,17.60
2019-06-10T20:34:56.898Z,17.50
2019-06-10T20:37:26.720Z,17.60
2019-06-10T20:39:56.595Z,17.50
2019-06-10T20:42:26.473Z,17.50
2019-06-10T20:44:56.366Z,17.50
2019-06-10T20:47:26.271Z,17.40
2019-06-10T20:49:56.326Z,17.30
2019-06-10T20:52:26.145Z,17.20
2019-06-10T20:54:56.210Z,17.10
2019-06-10T20:57:26.013Z,17.10
2019-06-10T20:59:55.865Z,17.20
2019-06-10T21:02:26.133Z,17.20
2019-06-10T21:04:58.680Z,17.20
2019-06-10T21:07:28.666Z,17.10
2019-06-10T21:10:02.847Z,17.00
2019-06-10T21:12:32.889Z,17.00
2019-06-10T21:15:02.784Z,16.90
2019-06-10T21:17:33.286Z,16.80
2019-06-10T21:20:03.588Z,16.80
2019-06-10T21:22:33.584Z,16.70
2019-06-10T21:25:03.816Z,16.60
2019-06-10T21:30:04.525Z,16.50
2019-06-10T21:32:35.049Z,16.40
2019-06-10T21:35:05.049Z,16.40
2019-06-10T21:37:34.881Z,16.40
2019-06-10T21:40:05.508Z,16.40
2019-06-10T21:42:35.312Z,16.30
2019-06-10T21:45:05.312Z,16.20
2019-06-10T21:47:35.186Z,16.10
2019-06-10T21:52:34.808Z,16.10
2019-06-10T21:55:06.185Z,16.00
2019-06-10T21:57:36.140Z,15.90
2019-06-10T22:00:11.365Z,15.90
2019-06-10T22:02:43.169Z,15.80
2019-06-10T22:05:12.781Z,15.80
2019-06-10T22:07:43.771Z,15.80
2019-06-10T22:12:43.961Z,15.80
2019-06-10T22:15:14.249Z,15.80
2019-06-10T22:17:44.248Z,15.70
2019-06-10T22:20:14.172Z,15.80
2019-06-10T22:22:44.439Z,15.80
2019-06-10T22:25:14.604Z,15.90
2019-06-10T22:27:44.417Z,16.00
2019-06-10T22:30:14.629Z,16.00
2019-06-10T22:32:45.231Z,16.00
2019-06-10T22:35:15.129Z,15.90
2019-06-10T22:37:45.609Z,15.90
2019-06-10T22:40:15.664Z,15.90
2019-06-10T22:42:45.534Z,15.90
2019-06-10T22:45:15.538Z,15.90
2019-06-10T22:47:45.352Z,15.80
2019-06-10T22:50:15.447Z,15.90
2019-06-10T22:52:45.522Z,15.90
2019-06-10T22:55:15.476Z,15.90
2019-06-10T22:57:45.458Z,15.90
2019-06-10T23:00:15.435Z,15.90
2019-06-10T23:02:45.259Z,15.80
2019-06-10T23:05:17.426Z,15.90
2019-06-10T23:07:48.196Z,15.80
2019-06-10T23:10:18.281Z,15.90
2019-06-10T23:12:48.580Z,15.90
2019-06-10T23:15:18.549Z,16.00
2019-06-10T23:17:48.974Z,16.00
2019-06-10T23:20:19.256Z,16.00
2019-06-10T23:22:49.374Z,16.00
2019-06-10T23:25:19.313Z,16.00
2019-06-10T23:27:49.982Z,15.90
2019-06-10T23:30:22.461Z,16.00
2019-06-10T23:32:55.721Z,16.00
2019-06-10T23:35:24.053Z,16.00
2019-06-10T23:37:56.922Z,16.00
2019-06-10T23:40:25.785Z,16.00
2019-06-10T23:42:57.014Z,15.90
2019-06-10T23:45:26.917Z,16.00
2019-06-10T23:47:58.061Z,15.90
2019-06-10T23:50:28.296Z,15.70
2019-06-10T23:53:00.153Z,15.70
2019-06-10T23:55:31.914Z,15.70
2019-06-10T23:58:02.400Z,15.70
